Latest Weather Observations for Eildon Fire Tower

IDV60801

Issued at 12:22 pm EST Tuesday 7 July 2020 (issued every 10 minutes, with the page automatically refreshed every 10 minutes)

About weather observations | Map of weather stations | Latest weather observations for VIC | Other Formats
Station Details ID: 088164 Name: EILDON FIRE TOWER Lat: -37.21 Lon: 145.84 Height: 637.0 m
Data from the previous 72 hours. | See also: Recent months at Eildon Fire Tower
Date/Time
EST
Temp
°C
App
Temp
°C
Dew
Point
°C
Rel
Hum
%
Delta-T
°C
Wind Press
QNH
hPa
Press
MSL
hPa
Rain since
9am
mm
Dir  Spd
km/h
Gust
km/h
Spd
kts
Gust
kts
07/12:00pm 8.4 5.4 6.0 85 1.1 W 11 13 6 7 - - 0.0
07/11:30am 7.9 5.6 5.7 86 1.0 W 7 9 4 5 - - 0.0
07/11:00am 9.0 7.5 5.2 77 1.8 NE 2 7 1 4 - - 0.0
07/10:30am 8.6 7.0 4.4 75 1.9 SE 2 4 1 2 - - 0.0
07/10:00am 9.1 7.0 5.7 79 1.6 SE 6 7 3 4 - - 0.0
07/09:30am 8.5 6.3 5.4 81 1.4 SE 6 9 3 5 - - 0.0
07/09:00am 7.8 4.9 4.7 81 1.4 SE 9 11 5 6 - - 0.0
07/08:30am 7.7 6.0 6.0 89 0.8 SSE 4 6 2 3 - - 0.0
07/08:00am 6.0 4.9 5.0 93 0.5 CALM 0 0 0 0 - - 0.0
07/07:30am 5.5 3.5 4.6 94 0.4 SW 4 6 2 3 - - 0.0
07/07:00am 5.4 3.7 4.2 92 0.5 SSW 2 4 1 2 - - 0.0
07/06:30am 5.6 3.6 4.4 92 0.5 S 4 6 2 3 - - 0.0
07/06:00am 5.7 3.3 4.3 91 0.6 SSE 6 7 3 4 - - 0.0
07/05:30am 5.7 3.3 4.3 91 0.6 SE 6 7 3 4 - - 0.0
07/05:00am 5.8 2.9 4.4 91 0.6 ESE 9 13 5 7 - - 0.0
07/04:30am 5.5 2.9 4.0 90 0.7 SE 7 11 4 6 - - 0.0
07/04:00am 6.0 4.0 4.3 89 0.8 SE 4 6 2 3 - - 0.0
07/03:30am 5.7 3.3 4.3 91 0.6 ESE 6 9 3 5 - - 0.0
07/03:00am 5.4 2.8 4.1 91 0.6 ESE 7 9 4 5 - - 0.0
07/02:30am 5.7 3.7 4.2 90 0.7 ESE 4 7 2 4 - - 0.0
07/02:00am 5.8 3.7 4.1 89 0.8 SSW 4 4 2 2 - - 0.0
07/01:30am 5.7 3.1 4.0 89 0.8 SW 7 9 4 5 - - 0.0
07/01:00am 5.9 4.6 4.2 89 0.8 CALM 0 4 0 2 - - 0.0
07/12:30am 5.8 3.3 4.0 88 0.8 SE 6 7 3 4 - - 0.0
07/12:00am 5.8 3.8 4.3 90 0.7 SE 4 6 2 3 - - 0.0
 
Date/Time
EST
Temp
°C
App
Temp
°C
Dew
Point
°C
Rel
Hum
%
Delta-T
°C
Wind Press
QNH
hPa
Press
MSL
hPa
Rain since
9am
mm
Dir  Spd
km/h
Gust
km/h
Spd
kts
Gust
kts
06/11:30pm 5.9 4.7 4.4 90 0.7 CALM 0 0 0 0 - - 0.0
06/11:00pm 6.1 4.1 4.4 89 0.8 S 4 6 2 3 - - 0.0
06/10:30pm 6.1 3.5 4.3 88 0.8 SW 7 9 4 5 - - 0.0
06/10:00pm 6.2 3.7 4.5 89 0.8 WSW 7 9 4 5 - - 0.0
06/09:30pm 6.4 3.5 4.9 90 0.7 SW 9 11 5 6 - - 0.0
06/09:00pm 6.4 3.9 5.0 91 0.6 SW 7 9 4 5 - - 0.0
06/08:30pm 6.6 4.2 5.2 91 0.6 SW 7 11 4 6 - - 0.0
06/08:00pm 6.8 3.6 5.3 90 0.7 WSW 11 17 6 9 - - 0.0
06/07:30pm 6.8 3.6 5.0 88 0.8 WSW 11 15 6 8 - - 0.0
06/07:00pm 7.0 3.4 4.8 86 1.0 SW 13 17 7 9 - - 0.0
06/06:30pm 7.0 3.0 5.0 87 0.9 SW 15 19 8 10 - - 0.0
06/06:00pm 6.9 2.9 4.7 86 1.0 SW 15 17 8 9 - - 0.0
06/05:30pm 6.9 2.8 4.6 85 1.0 WSW 15 26 8 14 - - 0.0
06/05:00pm 7.2 2.3 4.2 81 1.3 WSW 19 26 10 14 - - 0.0
06/04:30pm 8.0 3.5 4.0 76 1.8 SW 17 24 9 13 - - 0.0
06/04:00pm 8.0 3.2 4.6 79 1.6 SW 19 30 10 16 - - 0.0
06/03:30pm 8.3 3.4 4.9 79 1.6 WSW 20 30 11 16 - - 0.0
06/03:00pm 9.0 4.5 6.1 82 1.4 WSW 19 24 10 13 - - 0.0
06/02:30pm 8.8 4.2 6.3 84 1.2 WSW 20 28 11 15 - - 0.0
06/02:00pm 8.9 5.2 6.3 84 1.2 WSW 15 20 8 11 - - 0.0
06/01:30pm 8.7 5.4 6.2 84 1.2 WSW 13 17 7 9 - - 0.0
06/01:00pm 8.9 6.4 6.5 85 1.2 WSW 9 15 5 8 - - 0.0
06/12:30pm 8.7 6.5 5.4 80 1.5 W 6 9 3 5 - - 0.0
06/12:00pm 8.6 6.2 5.2 79 1.6 W 7 9 4 5 - - 0.0
06/11:30am 8.5 6.8 5.8 83 1.3 WNW 4 7 2 4 - - 0.0
06/11:00am 8.4 6.7 4.0 74 2.0 NE 2 4 1 2 - - 0.0
06/10:30am 8.7 6.3 5.4 80 1.5 NE 7 11 4 6 - - 0.0
06/10:00am 8.4 6.7 6.0 85 1.1 NNE 4 6 2 3 - - 0.0
06/09:30am 5.6 4.1 4.9 95 0.3 W 2 4 1 2 - - 0.0
06/09:00am 5.4 3.0 4.5 94 0.4 W 6 7 3 4 - - 0.2
06/08:30am 6.9 5.1 5.2 89 0.8 SSE 4 6 2 3 - - 0.2
06/08:00am 6.0 3.6 5.4 96 0.3 SSE 7 11 4 6 - - 0.2
06/07:30am 4.9 2.9 4.5 97 0.2 S 4 6 2 3 - - 0.2
06/07:00am 4.9 3.3 4.5 97 0.2 S 2 2 1 1 - - 0.2
06/06:30am 5.0 3.0 4.6 97 0.2 S 4 6 2 3 - - 0.2
06/06:00am 5.3 2.8 4.9 97 0.2 SSW 7 7 4 4 - - 0.2
06/05:30am 5.5 3.1 5.1 97 0.2 S 7 11 4 6 - - 0.2
06/05:00am 5.4 2.6 5.0 97 0.2 SW 9 13 5 7 - - 0.2
06/04:30am 5.6 2.4 5.2 97 0.2 SSW 11 13 6 7 - - 0.2
06/04:00am 5.8 3.1 5.4 97 0.2 SW 9 13 5 7 - - 0.2
06/03:30am 5.7 3.3 5.3 97 0.2 WSW 7 9 4 5 - - 0.0
06/03:00am 5.6 3.4 5.2 97 0.2 SW 6 9 3 5 - - 0.0
06/02:30am 5.8 3.6 5.4 97 0.2 SW 6 6 3 3 - - 0.0
06/02:00am 5.5 3.3 5.1 97 0.2 SW 6 13 3 7 - - 0.0
06/01:30am 5.8 3.4 5.4 97 0.2 WSW 7 11 4 6 - - 0.0
06/01:00am 5.8 3.1 5.4 97 0.2 WSW 9 11 5 6 - - 0.0
06/12:30am 5.9 2.8 5.5 97 0.2 WSW 11 15 6 8 - - 0.0
06/12:00am 6.0 2.9 5.6 97 0.2 WSW 11 19 6 10 - - 0.0
 
Date/Time
EST
Temp
°C
App
Temp
°C
Dew
Point
°C
Rel
Hum
%
Delta-T
°C
Wind Press
QNH
hPa
Press
MSL
hPa
Rain since
9am
mm
Dir  Spd
km/h
Gust
km/h
Spd
kts
Gust
kts
05/11:30pm 6.0 2.9 5.6 97 0.2 WSW 11 15 6 8 - - 0.0
05/11:00pm 6.0 2.2 5.6 97 0.2 SW 15 24 8 13 - - 0.0
05/10:30pm 6.0 1.4 5.6 97 0.2 WSW 19 32 10 17 - - 0.0
05/10:00pm 5.9 2.0 5.3 96 0.3 SW 15 20 8 11 - - 0.0
05/09:30pm 5.9 2.4 5.3 96 0.3 WSW 13 22 7 12 - - 0.0
05/09:00pm 6.0 1.7 5.3 95 0.3 WSW 17 20 9 11 - - 0.0
05/08:30pm 5.9 1.6 5.2 95 0.3 WSW 17 24 9 13 - - 0.0
05/08:00pm 6.0 2.0 5.0 93 0.5 WSW 15 19 8 10 - - 0.0
05/07:30pm 6.2 0.9 5.0 92 0.5 SW 22 30 12 16 - - 0.0
05/07:00pm 6.1 0.7 4.7 91 0.6 SW 22 32 12 17 - - 0.0
05/06:30pm 6.0 0.3 5.0 93 0.5 SW 24 33 13 18 - - 0.0
05/06:00pm 5.8 1.4 4.8 93 0.5 WSW 17 24 9 13 - - 0.0
05/05:30pm 6.4 1.5 5.0 91 0.6 WSW 20 32 11 17 - - 0.0
05/05:00pm 6.8 1.2 5.3 90 0.7 WSW 24 32 13 17 - - 0.0
05/04:30pm 7.4 2.1 4.9 84 1.1 WSW 22 35 12 19 - - 0.0
05/04:00pm 8.2 3.0 5.7 84 1.2 WSW 22 32 12 17 - - 0.0
05/03:30pm 9.2 4.4 5.6 78 1.7 WSW 20 30 11 16 - - 0.0
05/03:00pm 9.4 4.5 5.2 75 2.0 WSW 20 33 11 18 - - 0.0
05/02:30pm 9.1 3.8 5.1 76 1.9 SW 22 33 12 18 - - 0.0
05/02:00pm 9.0 3.2 4.6 74 2.0 SW 24 33 13 18 - - 0.0
05/01:30pm 9.0 3.8 5.6 79 1.6 WSW 22 30 12 16 - - 0.0
05/01:00pm 8.8 3.7 6.1 83 1.3 WSW 22 32 12 17 - - 0.0
05/12:30pm 8.5 2.7 6.3 86 1.0 WSW 26 37 14 20 - - 0.0
05/12:00pm 8.7 4.2 6.0 83 1.3 WSW 19 30 10 16 - - 0.0
05/11:30am 8.0 2.5 6.0 87 0.9 WSW 24 41 13 22 - - 0.0
05/11:00am 7.8 2.8 6.3 90 0.7 WSW 22 35 12 19 - - 0.0
05/10:30am 7.5 2.4 6.0 90 0.7 WSW 22 32 12 17 - - 0.0
05/10:00am 7.3 4.3 6.2 93 0.5 WSW 11 24 6 13 - - 0.0
05/09:30am 6.5 1.0 5.8 95 0.3 WSW 24 35 13 19 - - 0.0
05/09:00am 6.3 0.0 5.7 96 0.3 WSW 28 37 15 20 - - 3.2
05/08:30am 6.1 -0.6 5.7 97 0.2 WSW 30 41 16 22 - - 3.2
05/08:00am 5.9 -0.4 5.5 97 0.2 WSW 28 35 15 19 - - 3.2
05/07:30am 5.7 -0.3 5.4 98 0.1 WSW 26 39 14 21 - - 3.2
05/07:00am 5.9 0.3 5.6 98 0.1 WSW 24 32 13 17 - - 3.2
05/06:30am 5.8 1.2 5.5 98 0.1 WSW 19 24 10 13 - - 3.2
05/06:00am 5.7 0.5 5.4 98 0.1 WSW 22 30 12 16 - - 3.2
05/05:30am 5.6 1.3 5.3 98 0.1 W 17 22 9 12 - - 3.2
05/05:00am 5.6 0.7 5.3 98 0.1 WSW 20 32 11 17 - - 3.2
05/04:30am 5.5 -0.1 5.2 98 0.1 WSW 24 39 13 21 - - 3.2
05/04:00am 5.8 -1.5 5.5 98 0.1 WSW 33 46 18 25 - - 3.2
05/03:30am 6.4 0.2 6.1 98 0.1 WSW 28 39 15 21 - - 3.2
05/03:00am 6.5 1.4 6.2 98 0.1 WSW 22 33 12 18 - - 3.2
05/02:30am 6.6 1.2 6.3 98 0.1 WSW 24 35 13 19 - - 3.2
05/02:00am 6.7 1.3 6.4 98 0.1 WSW 24 35 13 19 - - 3.2
05/01:30am 6.7 1.7 6.4 98 0.1 WSW 22 28 12 15 - - 3.2
05/01:00am 6.9 0.8 6.6 98 0.1 WSW 28 39 15 21 - - 3.2
05/12:30am 7.1 2.6 6.8 98 0.1 WSW 20 33 11 18 - - 3.2
05/12:00am 7.0 2.6 6.7 98 0.1 WSW 19 24 10 13 - - 3.0
 
Date/Time
EST
Temp
°C
App
Temp
°C
Dew
Point
°C
Rel
Hum
%
Delta-T
°C
Wind Press
QNH
hPa
Press
MSL
hPa
Rain since
9am
mm
Dir  Spd
km/h
Gust
km/h
Spd
kts
Gust
kts
04/11:30pm 7.0 2.4 6.7 98 0.1 WSW 20 24 11 13 - - 2.6
04/11:00pm 7.0 3.0 6.7 98 0.1 WSW 17 20 9 11 - - 2.2
04/10:30pm 6.9 3.6 6.6 98 0.1 W 13 20 7 11 - - 1.8
04/10:00pm 6.8 3.5 6.5 98 0.1 W 13 17 7 9 - - 1.8
04/09:30pm 6.7 2.6 6.4 98 0.1 WSW 17 22 9 12 - - 1.6
04/09:00pm 6.9 2.5 6.6 98 0.1 WSW 19 26 10 14 - - 1.2
04/08:30pm 6.8 1.8 6.5 98 0.1 W 22 28 12 15 - - 1.2
04/08:00pm 6.8 2.2 6.5 98 0.1 WSW 20 24 11 13 - - 1.0
04/07:30pm 6.7 0.9 6.4 98 0.1 W 26 32 14 17 - - 0.8
04/07:00pm 6.7 2.1 6.4 98 0.1 W 20 30 11 16 - - 0.8
04/06:30pm 6.6 2.1 6.3 98 0.1 W 19 24 10 13 - - 0.6
04/06:00pm 6.5 2.0 6.2 98 0.1 W 19 22 10 12 - - 0.6
04/05:30pm 6.2 2.8 5.9 98 0.1 W 13 19 7 10 - - 0.6
04/05:00pm 6.0 2.9 5.7 98 0.1 W 11 15 6 8 - - 0.6
04/04:30pm 5.8 2.7 5.5 98 0.1 W 11 17 6 9 - - 0.6
04/04:00pm 5.8 1.9 5.5 98 0.1 WSW 15 24 8 13 - - 0.2
04/03:30pm 5.9 1.1 5.6 98 0.1 W 20 24 11 13 - - 0.2
04/03:00pm 5.9 1.1 5.6 98 0.1 WSW 20 26 11 14 - - 0.2
04/02:30pm 5.4 0.5 5.0 97 0.2 WSW 20 26 11 14 - - 0.2
04/02:00pm 5.6 1.3 5.3 98 0.1 WSW 17 20 9 11 - - 0.2
04/01:30pm 5.5 1.9 5.2 98 0.1 WSW 13 19 7 10 - - 0.2
04/01:00pm 5.1 1.1 4.7 97 0.2 WSW 15 20 8 11 - - 0.2
04/12:30pm 5.0 1.0 4.7 98 0.1 WSW 15 19 8 10 - - 0.2

Other formats

Comma delimited format used in spreadsheet applications
http://www.bom.gov.au/fwo/IDV60801/IDV60801.94881.axf

JavaScript Object Notation format (JSON) in row-major order
http://www.bom.gov.au/fwo/IDV60801/IDV60801.94881.json

Data quality

Most of these data are generated automatically and are frequently updated. Quality checks on data are not normally performed. It is possible for incorrect values to appear. Refer to information at About Latest Weather Observations and please check the disclaimer before using these data.